createdAt,value
2019-02-05T00:02:14.831Z,16.52
2019-02-05T00:04:44.346Z,16.67
2019-02-05T00:07:13.859Z,16.27
2019-02-05T00:09:44.533Z,16.00
2019-02-05T00:12:13.977Z,15.00
2019-02-05T00:14:44.028Z,15.13
2019-02-05T00:17:14.479Z,16.77
2019-02-05T00:19:44.344Z,16.15
2019-02-05T00:22:14.799Z,15.38
2019-02-05T00:24:45.301Z,15.83
2019-02-05T00:27:14.438Z,15.80
2019-02-05T00:29:44.583Z,15.70
2019-02-05T00:32:14.798Z,15.85
2019-02-05T00:34:46.179Z,17.00
2019-02-05T00:37:15.988Z,17.37
2019-02-05T00:39:46.802Z,19.23
2019-02-05T00:42:16.598Z,15.75
2019-02-05T00:44:46.779Z,16.25
2019-02-05T00:47:16.865Z,17.98
2019-02-05T00:49:46.103Z,15.53
2019-02-05T00:52:16.121Z,14.78
2019-02-05T00:54:45.607Z,16.20
2019-02-05T00:57:17.030Z,16.90
2019-02-05T00:59:48.795Z,17.23
2019-02-05T01:02:18.902Z,19.10
2019-02-05T01:04:49.082Z,17.73
2019-02-05T01:07:19.611Z,17.32
2019-02-05T01:09:49.910Z,19.62
2019-02-05T01:12:20.301Z,17.35
2019-02-05T01:14:50.759Z,16.93
2019-02-05T01:17:20.849Z,17.60
2019-02-05T01:19:51.400Z,17.60
2019-02-05T01:22:21.220Z,21.23
2019-02-05T01:24:51.402Z,20.23
2019-02-05T01:27:23.075Z,18.57
2019-02-05T01:29:53.916Z,19.02
2019-02-05T01:32:24.283Z,18.40
2019-02-05T01:34:53.886Z,18.62
2019-02-05T01:37:23.681Z,18.82
2019-02-05T01:39:53.205Z,17.12
2019-02-05T01:42:23.411Z,18.20
2019-02-05T01:44:53.309Z,17.50
2019-02-05T01:47:24.107Z,16.35
2019-02-05T01:49:54.366Z,17.92
2019-02-05T01:52:26.018Z,16.25
2019-02-05T01:54:56.140Z,16.85
2019-02-05T01:57:26.170Z,17.02
2019-02-05T01:59:56.214Z,18.73
2019-02-05T02:02:26.396Z,17.62
2019-02-05T02:04:56.323Z,15.93
2019-02-05T02:07:26.619Z,15.18
2019-02-05T02:09:56.055Z,15.50
2019-02-05T02:12:26.364Z,17.27
2019-02-05T02:14:57.315Z,15.45
2019-02-05T02:17:27.439Z,16.90
2019-02-05T02:19:57.343Z,14.93
2019-02-05T02:22:27.157Z,18.27
2019-02-05T02:24:56.758Z,16.17
2019-02-05T02:27:26.815Z,17.57
2019-02-05T02:29:56.979Z,17.57
2019-02-05T02:32:26.959Z,16.30
2019-02-05T02:34:57.040Z,18.55
2019-02-05T02:37:26.870Z,17.45
2019-02-05T02:39:56.706Z,17.12
2019-02-05T02:42:45.981Z,15.68
2019-02-05T02:45:16.431Z,16.65
2019-02-05T02:47:45.925Z,19.80
2019-02-05T02:50:16.905Z,19.67
2019-02-05T02:52:46.644Z,21.50
2019-02-05T02:55:16.528Z,17.92
2019-02-05T02:57:46.754Z,18.17
2019-02-05T03:00:19.232Z,17.48
2019-02-05T03:02:48.906Z,16.23
2019-02-05T03:05:20.627Z,16.87
2019-02-05T03:07:50.804Z,17.92
2019-02-05T03:10:25.594Z,18.73
2019-02-05T03:12:56.086Z,17.30
2019-02-05T03:15:26.378Z,18.07
2019-02-05T03:17:56.801Z,17.37
2019-02-05T03:20:26.317Z,15.45
2019-02-05T03:22:56.216Z,16.57
2019-02-05T03:25:26.439Z,15.15
2019-02-05T03:27:55.550Z,14.73
2019-02-05T03:30:25.480Z,15.40
2019-02-05T03:32:55.727Z,15.13
2019-02-05T03:35:24.906Z,20.23
2019-02-05T03:37:54.692Z,18.75
2019-02-05T03:41:09.363Z,19.55
2019-02-05T03:43:42.953Z,21.45
2019-02-05T03:46:17.283Z,20.57
2019-02-05T03:48:49.435Z,20.90
2019-02-05T03:52:02.870Z,20.27
2019-02-05T03:55:08.936Z,19.60
2019-02-05T03:58:32.513Z,19.03
2019-02-05T04:01:42.666Z,20.17
2019-02-05T04:04:50.468Z,19.67
2019-02-05T04:07:57.559Z,17.50
2019-02-05T04:11:00.611Z,14.00
2019-02-05T04:13:56.407Z,15.23
2019-02-05T04:16:54.745Z,14.30
2019-02-05T04:20:36.554Z,14.63
2019-02-05T04:23:48.136Z,14.20
2019-02-05T04:27:04.047Z,13.83
2019-02-05T04:30:13.463Z,13.13
2019-02-05T04:33:45.650Z,12.27
2019-02-05T04:36:51.957Z,13.60
2019-02-05T04:39:57.579Z,14.37
2019-02-05T04:42:46.481Z,14.43
2019-02-05T04:45:44.109Z,14.40
2019-02-05T04:48:43.778Z,13.83
2019-02-05T04:52:15.719Z,13.57
2019-02-05T04:55:22.448Z,13.23
2019-02-05T04:58:48.063Z,19.43
2019-02-05T05:01:54.164Z,21.87
2019-02-05T05:05:13.693Z,24.03
2019-02-05T05:08:06.151Z,58.50
2019-02-05T05:10:36.000Z,20.43
2019-02-05T05:13:06.195Z,19.43
2019-02-05T05:15:36.362Z,19.20
2019-02-05T05:18:06.312Z,27.53
2019-02-05T05:20:36.127Z,32.07
2019-02-05T05:23:06.267Z,23.77
2019-02-05T05:25:36.281Z,22.40
2019-02-05T05:28:10.184Z,39.70
2019-02-05T05:30:38.726Z,28.60
2019-02-05T05:33:08.167Z,60.60
2019-02-05T05:35:43.409Z,55.47
2019-02-05T05:38:09.440Z,24.95
2019-02-05T05:40:39.872Z,39.20
2019-02-05T05:43:09.977Z,24.23
2019-02-05T05:45:39.193Z,26.60
2019-02-05T05:48:28.223Z,24.33
2019-02-05T05:50:58.658Z,30.97
2019-02-05T05:53:28.587Z,46.70
2019-02-05T05:55:58.075Z,27.73
2019-02-05T05:58:28.518Z,28.07
2019-02-05T06:00:58.952Z,28.10
2019-02-05T06:03:28.851Z,29.73
2019-02-05T06:05:59.315Z,27.20
2019-02-05T06:08:29.534Z,50.13
2019-02-05T06:11:00.187Z,33.08
2019-02-05T06:13:30.062Z,57.33
2019-02-05T06:16:00.382Z,56.70
2019-02-05T06:18:29.982Z,42.03
2019-02-05T06:21:00.199Z,82.55
2019-02-05T06:23:30.238Z,28.07
2019-02-05T06:25:59.764Z,21.90
2019-02-05T06:28:34.629Z,18.37
2019-02-05T06:31:02.276Z,16.20
2019-02-05T06:33:32.132Z,16.07
2019-02-05T06:36:02.657Z,23.23
2019-02-05T06:38:32.254Z,32.97
2019-02-05T06:41:01.804Z,23.03
2019-02-05T06:43:31.922Z,21.70
2019-02-05T06:46:02.349Z,30.32
2019-02-05T06:48:32.851Z,20.93
2019-02-05T06:51:03.162Z,27.55
2019-02-05T06:53:32.976Z,17.17
2019-02-05T06:56:03.170Z,14.95
2019-02-05T06:58:33.276Z,19.27
2019-02-05T07:01:04.344Z,21.77
2019-02-05T07:03:34.827Z,29.00
2019-02-05T07:06:05.050Z,29.12
2019-02-05T07:08:35.023Z,23.97
2019-02-05T07:11:04.744Z,40.03
2019-02-05T07:13:35.445Z,20.20
2019-02-05T07:16:05.276Z,15.72
2019-02-05T07:18:35.151Z,16.45
2019-02-05T07:21:04.594Z,21.60
2019-02-05T07:23:34.011Z,18.35
2019-02-05T07:26:03.935Z,15.75
2019-02-05T07:28:34.207Z,15.80
2019-02-05T07:31:04.764Z,16.17
2019-02-05T07:33:34.175Z,14.73
2019-02-05T07:36:04.552Z,14.75
2019-02-05T07:38:35.056Z,15.00
2019-02-05T07:41:04.844Z,16.20
2019-02-05T07:43:35.264Z,16.50
2019-02-05T07:46:05.937Z,16.77
2019-02-05T07:48:36.477Z,18.45
2019-02-05T07:51:06.995Z,19.67
2019-02-05T07:53:36.970Z,18.45
2019-02-05T07:56:06.189Z,16.85
2019-02-05T07:58:36.223Z,16.87
2019-02-05T08:01:06.736Z,17.07
2019-02-05T08:03:36.721Z,16.77
2019-02-05T08:06:06.183Z,15.93
2019-02-05T08:08:36.147Z,18.17
2019-02-05T08:11:06.715Z,17.42
2019-02-05T08:13:36.988Z,18.87
2019-02-05T08:16:07.756Z,18.52
2019-02-05T08:18:37.919Z,17.20
2019-02-05T08:21:07.636Z,17.42
2019-02-05T08:23:37.461Z,17.65
2019-02-05T08:26:07.672Z,16.17
2019-02-05T08:28:41.063Z,16.65
2019-02-05T08:31:09.648Z,34.95
2019-02-05T08:33:39.999Z,28.57
2019-02-05T08:36:09.741Z,25.02
2019-02-05T08:38:39.866Z,23.67
2019-02-05T08:41:09.649Z,19.67
2019-02-05T08:43:39.859Z,19.77
2019-02-05T08:46:09.979Z,18.82
2019-02-05T08:48:40.395Z,18.48
2019-02-05T08:51:09.847Z,21.05
2019-02-05T08:53:39.304Z,18.45
2019-02-05T08:56:09.441Z,18.90
2019-02-05T08:58:39.249Z,19.12
2019-02-05T09:01:09.576Z,19.45
2019-02-05T09:03:40.032Z,21.52
2019-02-05T09:06:10.223Z,20.40
2019-02-05T09:08:39.969Z,20.88
2019-02-05T09:11:28.992Z,23.67
2019-02-05T09:14:10.368Z,20.30
2019-02-05T09:16:30.771Z,20.43
2019-02-05T09:19:02.108Z,20.75
2019-02-05T09:21:31.979Z,18.30
2019-02-05T09:24:01.496Z,22.27
2019-02-05T09:26:31.691Z,19.32
2019-02-05T09:29:01.966Z,20.30
2019-02-05T09:31:32.018Z,19.52
2019-02-05T09:34:02.116Z,20.17
2019-02-05T09:36:32.246Z,21.50
2019-02-05T09:39:02.349Z,20.10
2019-02-05T09:41:32.584Z,18.90
2019-02-05T09:44:03.002Z,18.52
2019-02-05T09:46:32.515Z,18.73
2019-02-05T09:49:03.043Z,16.27
2019-02-05T09:51:33.292Z,16.15
2019-02-05T09:54:03.183Z,17.77
2019-02-05T09:56:33.499Z,18.15
2019-02-05T09:59:03.007Z,18.75
2019-02-05T10:01:33.203Z,17.67
2019-02-05T10:04:03.283Z,18.45
2019-02-05T10:06:32.738Z,18.95
2019-02-05T10:09:02.582Z,18.45
2019-02-05T10:11:32.710Z,15.75
2019-02-05T10:14:03.218Z,15.78
2019-02-05T10:16:33.228Z,16.15
2019-02-05T10:19:03.059Z,14.95
2019-02-05T10:21:33.362Z,15.93
2019-02-05T10:24:03.338Z,15.80
2019-02-05T10:26:32.895Z,16.45
2019-02-05T10:29:03.235Z,16.05
2019-02-05T10:31:33.217Z,16.75
2019-02-05T10:34:03.922Z,17.48
2019-02-05T10:36:34.243Z,18.23
2019-02-05T10:39:05.856Z,18.27
2019-02-05T10:41:36.512Z,18.90
2019-02-05T10:44:06.385Z,18.15
2019-02-05T10:46:35.875Z,18.15
2019-02-05T10:49:05.310Z,19.30
2019-02-05T10:51:35.415Z,19.98
2019-02-05T10:54:05.443Z,18.45
2019-02-05T10:56:35.987Z,18.32
2019-02-05T10:59:05.771Z,18.27
2019-02-05T11:01:35.294Z,18.70
2019-02-05T11:04:06.036Z,19.15
2019-02-05T11:06:36.449Z,19.20
2019-02-05T11:09:08.334Z,18.32
2019-02-05T11:11:38.516Z,18.27
2019-02-05T11:14:08.434Z,19.20
2019-02-05T11:16:38.451Z,18.42
2019-02-05T11:19:09.071Z,18.65
2019-02-05T11:21:39.397Z,19.32
2019-02-05T11:24:14.210Z,18.32
2019-02-05T11:26:44.727Z,17.32
2019-02-05T11:29:16.289Z,18.65
2019-02-05T11:31:46.138Z,22.25
2019-02-05T11:34:15.936Z,27.98
2019-02-05T11:36:46.519Z,29.30
2019-02-05T11:39:17.083Z,36.33
2019-02-05T11:41:46.910Z,28.90
2019-02-05T11:44:17.147Z,22.87
2019-02-05T11:46:46.651Z,26.40
2019-02-05T11:49:17.110Z,24.75
2019-02-05T11:51:47.149Z,22.17
2019-02-05T11:54:17.725Z,20.90
2019-02-05T11:56:47.983Z,19.23
2019-02-05T11:59:17.536Z,20.12
2019-02-05T12:01:48.766Z,19.05
2019-02-05T12:04:18.718Z,19.00
2019-02-05T12:06:49.354Z,18.55
2019-02-05T12:09:21.903Z,17.20
2019-02-05T12:11:52.341Z,18.37
2019-02-05T12:14:21.956Z,17.15
2019-02-05T12:16:51.762Z,16.95
2019-02-05T12:19:21.662Z,17.10
2019-02-05T12:21:52.518Z,17.25
2019-02-05T12:24:23.058Z,16.32
2019-02-05T12:26:52.438Z,17.73
2019-02-05T12:29:22.563Z,18.27
2019-02-05T12:31:51.763Z,16.52
2019-02-05T12:34:22.033Z,17.87
2019-02-05T12:36:51.559Z,17.42
2019-02-05T12:39:22.128Z,17.23
2019-02-05T12:41:51.930Z,16.93
2019-02-05T12:44:22.111Z,17.00
2019-02-05T12:46:51.543Z,23.50
2019-02-05T12:49:21.570Z,17.85
2019-02-05T12:51:51.760Z,17.60
2019-02-05T12:54:21.310Z,16.97
2019-02-05T12:56:51.115Z,18.32
2019-02-05T12:59:21.423Z,22.87
2019-02-05T13:01:50.504Z,18.35
2019-02-05T13:04:20.723Z,15.35
2019-02-05T13:06:50.492Z,16.65
2019-02-05T13:09:20.117Z,53.75
2019-02-05T13:11:49.951Z,39.13
2019-02-05T13:14:20.083Z,17.67
2019-02-05T13:16:49.709Z,15.83
2019-02-05T13:19:19.005Z,15.38
2019-02-05T13:21:49.299Z,14.50
2019-02-05T13:24:18.839Z,15.10
2019-02-05T13:26:48.271Z,14.80
2019-02-05T13:29:18.272Z,15.63
2019-02-05T13:31:48.707Z,16.52
2019-02-05T13:34:18.883Z,14.73
2019-02-05T13:36:49.017Z,21.68
2019-02-05T13:39:18.520Z,17.25
2019-02-05T13:41:47.984Z,14.65
2019-02-05T13:44:18.136Z,15.08
2019-02-05T13:46:47.951Z,14.28
2019-02-05T13:49:18.022Z,14.60
2019-02-05T13:51:47.228Z,15.80
2019-02-05T13:54:17.405Z,14.85
2019-02-05T13:56:47.404Z,16.55
2019-02-05T13:59:17.299Z,16.23
2019-02-05T14:01:47.450Z,14.65
2019-02-05T14:04:18.243Z,14.33
2019-02-05T14:06:50.608Z,16.30
2019-02-05T14:09:19.598Z,14.65
2019-02-05T14:11:49.354Z,15.13
2019-02-05T14:14:20.040Z,15.30
2019-02-05T14:16:49.918Z,22.15
2019-02-05T14:19:20.093Z,31.77
2019-02-05T14:21:50.661Z,22.87
2019-02-05T14:24:20.835Z,16.48
2019-02-05T14:26:50.605Z,16.27
2019-02-05T14:29:20.854Z,15.08
2019-02-05T14:31:50.729Z,12.70
2019-02-05T14:34:21.198Z,14.18
2019-02-05T14:36:50.956Z,14.58
2019-02-05T14:39:20.767Z,16.60
2019-02-05T14:41:51.271Z,14.93
2019-02-05T14:44:21.449Z,15.05
2019-02-05T14:46:51.954Z,14.55
2019-02-05T14:49:22.114Z,14.87
2019-02-05T14:51:52.189Z,13.45
2019-02-05T14:54:22.091Z,13.88
2019-02-05T14:56:51.599Z,15.03
2019-02-05T14:59:21.550Z,14.60
2019-02-05T15:01:51.828Z,14.93
2019-02-05T15:04:22.414Z,13.35
2019-02-05T15:06:52.330Z,14.68
2019-02-05T15:09:22.467Z,15.83
2019-02-05T15:11:51.942Z,15.15
2019-02-05T15:14:21.823Z,14.65
2019-02-05T15:16:51.878Z,13.65
2019-02-05T15:19:21.660Z,15.30
2019-02-05T15:21:52.011Z,15.95
2019-02-05T15:24:21.959Z,15.83
2019-02-05T15:26:52.049Z,15.53
2019-02-05T15:29:22.142Z,14.80
2019-02-05T15:31:54.569Z,14.58
2019-02-05T15:34:28.201Z,14.53
2019-02-05T15:36:58.106Z,13.53
2019-02-05T15:39:27.960Z,14.40
2019-02-05T15:41:58.260Z,15.83
2019-02-05T15:44:28.330Z,15.25
2019-02-05T15:46:58.515Z,19.73
2019-02-05T15:49:28.716Z,17.70
2019-02-05T15:51:58.895Z,16.65
2019-02-05T15:54:29.006Z,16.65
2019-02-05T15:56:59.247Z,16.30
2019-02-05T15:59:29.821Z,14.78
2019-02-05T16:02:06.354Z,15.98
2019-02-05T16:04:31.296Z,24.35
2019-02-05T16:07:01.292Z,30.23
2019-02-05T16:09:31.888Z,36.00
2019-02-05T16:12:01.304Z,35.83
2019-02-05T16:14:31.550Z,30.37
2019-02-05T16:17:01.801Z,24.37
2019-02-05T16:19:31.695Z,19.75
2019-02-05T16:22:02.358Z,17.40
2019-02-05T16:24:32.754Z,17.02
2019-02-05T16:27:02.765Z,15.88
2019-02-05T16:29:32.267Z,16.42
2019-02-05T16:32:02.400Z,16.00
2019-02-05T16:34:32.900Z,16.50
2019-02-05T16:37:02.688Z,17.05
2019-02-05T16:39:32.107Z,16.95
2019-02-05T16:42:02.357Z,15.90
2019-02-05T16:44:32.273Z,17.80
2019-02-05T16:47:01.947Z,15.30
2019-02-05T16:49:32.096Z,16.35
2019-02-05T16:52:02.251Z,15.53
2019-02-05T16:54:39.236Z,16.62
2019-02-05T16:57:09.112Z,16.50
2019-02-05T16:59:39.132Z,16.70
2019-02-05T17:02:09.176Z,17.92
2019-02-05T17:04:38.848Z,16.87
2019-02-05T17:07:08.797Z,15.03
2019-02-05T17:09:38.797Z,16.23
2019-02-05T17:12:08.409Z,13.58
2019-02-05T17:14:38.513Z,16.25
2019-02-05T17:17:08.720Z,16.40
2019-02-05T17:19:38.637Z,18.32
2019-02-05T17:22:08.977Z,16.87
2019-02-05T17:24:39.532Z,17.00
2019-02-05T17:27:10.081Z,16.85
2019-02-05T17:29:40.576Z,15.95
2019-02-05T17:32:10.871Z,15.55
2019-02-05T17:34:40.868Z,18.30
2019-02-05T17:37:12.615Z,17.80
2019-02-05T17:39:42.267Z,18.62
2019-02-05T17:42:12.201Z,18.80
2019-02-05T17:44:42.199Z,16.77
2019-02-05T17:47:12.426Z,22.30
2019-02-05T17:49:42.657Z,25.35
2019-02-05T17:52:13.020Z,19.87
2019-02-05T17:54:43.603Z,18.92
2019-02-05T17:57:14.228Z,18.77
2019-02-05T17:59:44.444Z,19.20
2019-02-05T18:02:15.081Z,21.55
2019-02-05T18:04:45.424Z,22.32
2019-02-05T18:07:15.428Z,19.50
2019-02-05T18:09:45.425Z,17.17
2019-02-05T18:12:14.984Z,16.77
2019-02-05T18:14:44.560Z,17.17
2019-02-05T18:17:14.987Z,17.77
2019-02-05T18:19:45.201Z,18.27
2019-02-05T18:22:15.079Z,16.55
2019-02-05T18:24:44.317Z,18.37
2019-02-05T18:27:14.668Z,20.40
2019-02-05T18:29:44.566Z,23.38
2019-02-05T18:32:14.370Z,22.62
2019-02-05T18:34:44.904Z,19.87
2019-02-05T18:37:15.399Z,20.50
2019-02-05T18:39:45.661Z,19.73
2019-02-05T18:42:15.248Z,17.92
2019-02-05T18:44:48.083Z,17.85
2019-02-05T18:47:17.980Z,48.35
2019-02-05T18:49:48.596Z,40.63
2019-02-05T18:52:20.566Z,38.40
2019-02-05T18:54:50.965Z,42.58
2019-02-05T18:57:22.018Z,23.87
2019-02-05T18:59:52.301Z,98.42
2019-02-05T19:02:21.948Z,20.48
2019-02-05T19:04:52.373Z,21.82
2019-02-05T19:07:22.836Z,18.02
2019-02-05T19:09:52.937Z,16.87
2019-02-05T19:12:23.829Z,18.75
2019-02-05T19:14:54.190Z,27.45
2019-02-05T19:17:23.753Z,51.30
2019-02-05T19:19:54.095Z,58.52
2019-02-05T19:22:24.479Z,72.12
2019-02-05T19:24:58.607Z,60.67
2019-02-05T19:27:28.553Z,28.87
2019-02-05T19:29:58.062Z,31.07
2019-02-05T19:32:30.131Z,37.98
2019-02-05T19:35:00.480Z,30.30
2019-02-05T19:37:49.405Z,22.55
2019-02-05T19:40:18.645Z,21.77
2019-02-05T19:42:48.624Z,19.10
2019-02-05T19:45:27.503Z,17.42
2019-02-05T19:47:58.466Z,16.80
2019-02-05T19:50:28.922Z,23.80
2019-02-05T19:52:59.647Z,21.02
2019-02-05T19:55:30.276Z,20.02
2019-02-05T19:58:00.882Z,18.32
2019-02-05T20:00:31.246Z,15.60
2019-02-05T20:03:01.815Z,15.13
2019-02-05T20:05:31.795Z,14.23
2019-02-05T20:08:02.522Z,13.03
2019-02-05T20:10:32.533Z,14.38
2019-02-05T20:13:21.185Z,13.22
2019-02-05T20:15:51.756Z,16.70
2019-02-05T20:18:22.278Z,16.60
2019-02-05T20:20:51.851Z,15.95
2019-02-05T20:23:23.063Z,15.30
2019-02-05T20:25:53.357Z,16.25
2019-02-05T20:28:23.527Z,15.90
2019-02-05T20:30:53.892Z,17.00
2019-02-05T20:33:24.167Z,16.97
2019-02-05T20:35:54.416Z,16.35
2019-02-05T20:38:24.307Z,16.82
2019-02-05T20:40:55.052Z,15.65
2019-02-05T20:43:25.452Z,13.62
2019-02-05T20:45:55.839Z,15.53
2019-02-05T20:48:26.183Z,14.45
2019-02-05T20:50:56.751Z,13.03
2019-02-05T20:53:27.113Z,14.78
2019-02-05T20:55:57.052Z,14.07
2019-02-05T20:58:27.419Z,17.10
2019-02-05T21:00:57.420Z,19.52
2019-02-05T21:03:27.787Z,21.93
2019-02-05T21:05:57.603Z,27.32
2019-02-05T21:08:27.866Z,23.50
2019-02-05T21:10:57.829Z,21.62
2019-02-05T21:13:28.056Z,22.25
2019-02-05T21:15:58.330Z,18.15
2019-02-05T21:18:28.634Z,17.70
2019-02-05T21:20:58.215Z,15.23
2019-02-05T21:23:28.734Z,15.10
2019-02-05T21:25:58.981Z,16.07
2019-02-05T21:28:29.389Z,14.28
2019-02-05T21:30:59.540Z,11.73
2019-02-05T21:33:29.847Z,11.65
2019-02-05T21:35:59.739Z,11.38
2019-02-05T21:38:29.639Z,12.55
2019-02-05T21:40:59.183Z,9.83
2019-02-05T21:43:29.689Z,8.93
2019-02-05T21:46:01.094Z,9.80
2019-02-05T21:48:31.146Z,8.58
2019-02-05T21:51:01.814Z,10.43
2019-02-05T21:53:32.064Z,18.85
2019-02-05T21:56:02.718Z,21.75
2019-02-05T21:58:32.678Z,18.23
2019-02-05T22:01:02.856Z,19.40
2019-02-05T22:03:32.812Z,18.67
2019-02-05T22:06:02.942Z,18.35
2019-02-05T22:08:32.873Z,18.87
2019-02-05T22:11:07.259Z,18.57
2019-02-05T22:13:37.388Z,17.85
2019-02-05T22:16:07.770Z,17.05
2019-02-05T22:18:38.752Z,17.98
2019-02-05T22:21:09.067Z,15.65
2019-02-05T22:23:39.784Z,17.82
2019-02-05T22:26:09.886Z,15.00
2019-02-05T22:28:40.144Z,17.90
2019-02-05T22:31:18.201Z,18.27
2019-02-05T22:34:18.469Z,16.55
2019-02-05T22:36:48.441Z,20.08
2019-02-05T22:40:26.811Z,23.27
2019-02-05T22:44:23.935Z,21.27
2019-02-05T22:46:58.122Z,19.20
2019-02-05T22:50:24.854Z,21.20
2019-02-05T22:54:07.589Z,16.25
2019-02-05T23:13:45.257Z,8.23
2019-02-05T23:19:47.845Z,8.50
2019-02-05T23:22:18.423Z,12.30
2019-02-05T23:24:48.531Z,11.57
2019-02-05T23:27:19.278Z,11.97
2019-02-05T23:29:50.372Z,14.83
2019-02-05T23:32:20.772Z,15.63
2019-02-05T23:35:01.806Z,17.12
2019-02-05T23:37:22.331Z,16.07
2019-02-05T23:39:51.871Z,16.90
2019-02-05T23:42:21.851Z,12.68
2019-02-05T23:45:18.638Z,9.20
2019-02-05T23:47:51.959Z,6.33
2019-02-05T23:50:22.246Z,8.80
2019-02-05T23:52:53.055Z,7.92
2019-02-05T23:55:27.572Z,7.42
2019-02-05T23:57:57.519Z,8.05
